This is the latest recevied weather packets stored in our database for station/object DO7ZT-10. If no packets are shown the sender has not sent any weather packets the latest 10 day(s).
| Time | Temp. | Humidity | Pressure | Rain* | Wind** | Luminosity | Snow |
|---|---|---|---|---|---|---|---|
| 1777747697 | 15° C | 51% | 1018.1 hPa | - | - | - | - |
| 1777746797 | 16.11° C | 46% | 1018.1 hPa | - | - | - | - |
| 1777745897 | 17.78° C | 44% | 1018 hPa | - | - | - | - |
| 1777744997 | 20° C | 37% | 1017.9 hPa | - | - | - | - |
| 1777744097 | 21.67° C | 29% | 1017.9 hPa | - | - | - | - |
| 1777743197 | 22.78° C | 26% | 1017.9 hPa | - | - | - | - |
| 1777742296 | 23.33° C | 22% | 1017.9 hPa | - | - | - | - |
| 1777741396 | 23.89° C | 18% | 1018 hPa | - | - | - | - |
| 1777740496 | 24.44° C | 20% | 1018.2 hPa | - | - | - | - |
| 1777739596 | 24.44° C | 20% | 1018.3 hPa | - | - | - | - |
| 1777738696 | 25° C | 17% | 1018.5 hPa | - | - | - | - |
| 1777737796 | 25° C | 19% | 1018.7 hPa | - | - | - | - |
| 1777736896 | 25.56° C | 17% | 1019.1 hPa | - | - | - | - |
| 1777735996 | 25° C | 18% | 1019.1 hPa | - | - | - | - |
| 1777735096 | 25.56° C | 19% | 1019.3 hPa | - | - | - | - |
| 1777734196 | 25.56° C | 19% | 1019.3 hPa | - | - | - | - |
| 1777733296 | 26.11° C | 20% | 1019.6 hPa | - | - | - | - |
| 1777732396 | 26.11° C | 18% | 1019.9 hPa | - | - | - | - |
| 1777731496 | 26.67° C | 19% | 1020 hPa | - | - | - | - |
| 1777730595 | 26.11° C | 19% | 1020.2 hPa | - | - | - | - |
| 1777729695 | 26.11° C | 20% | 1020.4 hPa | - | - | - | - |
| 1777728795 | 26.67° C | 19% | 1020.6 hPa | - | - | - | - |
| 1777727895 | 26.11° C | 19% | 1020.9 hPa | - | - | - | - |
| 1777726995 | 26.11° C | 19% | 1021.1 hPa | - | - | - | - |
| 1777726095 | 26.67° C | 20% | 1021.3 hPa | - | - | - | - |
* Rain since midnight (hover to see other rain measurements)
** Current wind speed in m/s (hover to see current wind gust speed)